Time;durP1;ratioP1;P1;durP2;ratioP2;P2;SDS_P1;SDS_P2;PMS_P1;PMS_P2;Temp;Humidity;BMP_temperature;BMP_pressure;BME280_temperature;BME280_humidity;BME280_pressure;Samples;Min_cycle;Max_cycle;Signal;HPM_P1;HPM_P2
2022/07/23 00:01:22;;;;;;;;;;;29.30;38.60;;;;;;8364951;28;19920;-45
2022/07/23 00:05:23;;;;;;;;;;;29.30;38.70;;;;;;8364580;28;20433;-46
2022/07/23 00:09:23;;;;;;;;;;;29.30;38.70;;;;;;8365125;28;19921;-46
2022/07/23 00:13:23;;;;;;;;;;;29.20;38.60;;;;;;8364633;28;19921;-45
2022/07/23 00:17:24;;;;;;;;;;;29.20;38.70;;;;;;8364181;28;19921;-46
2022/07/23 00:21:24;;;;;;;;;;;29.20;38.70;;;;;;8364554;28;20360;-45
2022/07/23 00:25:26;;;;;;;;;;;29.20;38.70;;;;;;8364425;28;19916;-46
2022/07/23 00:29:27;;;;;;;;;;;29.20;38.80;;;;;;8363939;28;19924;-46
2022/07/23 00:33:27;;;;;;;;;;;29.20;38.80;;;;;;8363994;28;19917;-46
2022/07/23 00:37:27;;;;;;;;;;;29.20;38.80;;;;;;8364261;28;19920;-46
2022/07/23 00:41:28;;;;;;;;;;;29.20;38.90;;;;;;8363469;28;19943;-46
2022/07/23 00:45:28;;;;;;;;;;;29.20;38.90;;;;;;8364141;28;19931;-46
2022/07/23 00:49:29;;;;;;;;;;;29.20;38.90;;;;;;8363905;28;19924;-46
2022/07/23 00:53:31;;;;;;;;;;;29.20;38.90;;;;;;8363283;28;19928;-46
2022/07/23 00:57:32;;;;;;;;;;;29.10;38.90;;;;;;8363879;28;20452;-44
2022/07/23 01:01:32;;;;;;;;;;;29.10;38.90;;;;;;8363683;28;19917;-43
2022/07/23 01:05:33;;;;;;;;;;;29.10;38.90;;;;;;8362983;28;19924;-44
2022/07/23 01:09:33;;;;;;;;;;;29.10;38.90;;;;;;8362881;28;19928;-47
2022/07/23 01:13:34;;;;;;;;;;;29.00;38.90;;;;;;8362269;28;19974;-46
2022/07/23 01:17:34;;;;;;;;;;;29.10;39.00;;;;;;8362883;28;20325;-44
2022/07/23 01:21:36;;;;;;;;;;;29.00;39.00;;;;;;8363329;28;20427;-43
2022/07/23 01:25:36;;;;;;;;;;;29.00;39.00;;;;;;8362567;28;19916;-42
2022/07/23 01:29:36;;;;;;;;;;;29.00;39.00;;;;;;8363427;28;20352;-44
2022/07/23 01:33:37;;;;;;;;;;;29.00;39.00;;;;;;8363023;28;19917;-44
2022/07/23 01:37:38;;;;;;;;;;;29.00;39.00;;;;;;8362610;28;19921;-44
2022/07/23 01:41:38;;;;;;;;;;;29.00;39.00;;;;;;8363209;28;19917;-44
2022/07/23 01:45:39;;;;;;;;;;;29.00;39.00;;;;;;8362841;28;19942;-44
2022/07/23 01:49:39;;;;;;;;;;;29.00;39.00;;;;;;8362493;28;19999;-46
2022/07/23 01:53:39;;;;;;;;;;;29.00;39.00;;;;;;8362624;28;20385;-44
2022/07/23 01:57:40;;;;;;;;;;;28.90;39.00;;;;;;8362759;28;19928;-44
2022/07/23 02:01:40;;;;;;;;;;;29.00;39.00;;;;;;8362152;28;20361;-45
2022/07/23 02:05:41;;;;;;;;;;;28.90;39.00;;;;;;8362799;28;19917;-44
2022/07/23 02:09:41;;;;;;;;;;;28.90;39.00;;;;;;8362559;28;19917;-44
2022/07/23 02:13:42;;;;;;;;;;;28.90;39.00;;;;;;8372396;28;19928;-45
2022/07/23 02:17:42;;;;;;;;;;;28.90;39.00;;;;;;8362406;28;20110;-43
2022/07/23 02:21:43;;;;;;;;;;;28.90;39.00;;;;;;8362465;28;19921;-44
2022/07/23 02:25:43;;;;;;;;;;;28.90;39.10;;;;;;8364578;28;19921;-45
2022/07/23 02:29:44;;;;;;;;;;;28.90;39.00;;;;;;8368284;28;19921;-44
2022/07/23 02:33:44;;;;;;;;;;;28.90;39.00;;;;;;8367920;28;20003;-44
2022/07/23 02:37:45;;;;;;;;;;;28.90;39.00;;;;;;8367560;28;19952;-44
2022/07/23 02:41:45;;;;;;;;;;;28.90;39.10;;;;;;8367989;28;19959;-44
2022/07/23 02:45:45;;;;;;;;;;;28.90;39.10;;;;;;8367551;28;19921;-44
2022/07/23 02:49:46;;;;;;;;;;;28.90;39.10;;;;;;8366991;28;19921;-44
2022/07/23 02:53:46;;;;;;;;;;;28.80;39.00;;;;;;8367276;28;20047;-43
2022/07/23 02:57:47;;;;;;;;;;;28.80;39.10;;;;;;8367308;28;19975;-44
2022/07/23 03:01:47;;;;;;;;;;;28.80;39.10;;;;;;8366582;28;19924;-42
2022/07/23 03:05:48;;;;;;;;;;;28.80;39.10;;;;;;8367037;28;19943;-44
2022/07/23 03:09:48;;;;;;;;;;;28.80;39.10;;;;;;8367102;28;20370;-44
2022/07/23 03:13:49;;;;;;;;;;;28.80;39.10;;;;;;8366201;28;20438;-43
2022/07/23 03:17:49;;;;;;;;;;;28.80;39.10;;;;;;8366755;28;19931;-44
2022/07/23 03:21:50;;;;;;;;;;;28.80;39.20;;;;;;8366449;28;20333;-44
2022/07/23 03:25:50;;;;;;;;;;;28.80;39.10;;;;;;8365811;28;20403;-46
2022/07/23 03:29:51;;;;;;;;;;;28.80;39.20;;;;;;8366329;28;19936;-44
2022/07/23 03:33:51;;;;;;;;;;;28.80;39.20;;;;;;8366364;28;19916;-46
2022/07/23 03:37:52;;;;;;;;;;;28.80;39.20;;;;;;8364701;28;20428;-44
2022/07/23 03:41:52;;;;;;;;;;;28.80;39.30;;;;;;8365811;28;19924;-44
2022/07/23 03:45:53;;;;;;;;;;;28.80;39.30;;;;;;8365898;28;19928;-44
2022/07/23 03:49:54;;;;;;;;;;;28.70;39.20;;;;;;8365178;28;19921;-47
2022/07/23 03:53:55;;;;;;;;;;;28.70;39.30;;;;;;8365490;28;19913;-45
2022/07/23 03:57:55;;;;;;;;;;;28.70;39.30;;;;;;8365533;28;20332;-44
2022/07/23 04:01:56;;;;;;;;;;;28.70;39.30;;;;;;8363762;28;19921;-45
2022/07/23 04:05:56;;;;;;;;;;;28.70;39.40;;;;;;8365305;28;19917;-44
2022/07/23 04:09:57;;;;;;;;;;;28.70;39.40;;;;;;8365152;28;19916;-44
2022/07/23 04:13:57;;;;;;;;;;;28.70;39.40;;;;;;8364440;28;19955;-45
2022/07/23 04:17:58;;;;;;;;;;;28.70;39.40;;;;;;8364843;28;19924;-44
2022/07/23 04:21:58;;;;;;;;;;;28.70;39.40;;;;;;8364467;28;19924;-44
2022/07/23 04:25:58;;;;;;;;;;;28.70;39.40;;;;;;8364076;28;19917;-45
2022/07/23 04:29:59;;;;;;;;;;;28.70;39.40;;;;;;8364671;28;19913;-45
2022/07/23 04:33:59;;;;;;;;;;;28.60;39.40;;;;;;8364426;28;19917;-45
2022/07/23 04:38:00;;;;;;;;;;;28.60;39.40;;;;;;8363588;28;19931;-45
2022/07/23 04:42:01;;;;;;;;;;;28.60;39.50;;;;;;8363736;28;20370;-44
2022/07/23 04:46:01;;;;;;;;;;;28.60;39.50;;;;;;8363815;28;20301;-45
2022/07/23 04:50:02;;;;;;;;;;;28.60;39.50;;;;;;8363043;28;20019;-43
2022/07/23 04:54:02;;;;;;;;;;;28.60;39.50;;;;;;8363929;28;19912;-44
2022/07/23 04:58:03;;;;;;;;;;;28.60;39.50;;;;;;8363621;28;19924;-45
2022/07/23 05:02:03;;;;;;;;;;;28.60;39.60;;;;;;8362924;28;19917;-45
2022/07/23 05:06:04;;;;;;;;;;;28.60;39.60;;;;;;8363311;28;19921;-45
2022/07/23 05:10:04;;;;;;;;;;;28.60;39.60;;;;;;8363508;28;20400;-45
2022/07/23 05:14:05;;;;;;;;;;;28.60;39.70;;;;;;8362956;28;19921;-45
2022/07/23 05:18:05;;;;;;;;;;;28.60;39.70;;;;;;8363056;28;19925;-47
2022/07/23 05:22:06;;;;;;;;;;;28.50;39.80;;;;;;8363048;28;19939;-46
2022/07/23 05:26:06;;;;;;;;;;;28.50;39.90;;;;;;8362657;28;20301;-44
2022/07/23 05:30:07;;;;;;;;;;;28.50;39.90;;;;;;8362999;28;19913;-45
2022/07/23 05:34:07;;;;;;;;;;;28.50;39.90;;;;;;8363105;28;19921;-45
2022/07/23 05:38:08;;;;;;;;;;;28.50;39.90;;;;;;8362377;28;20424;-45
2022/07/23 05:42:08;;;;;;;;;;;28.60;40.00;;;;;;8363331;28;20441;-45
2022/07/23 05:46:09;;;;;;;;;;;28.50;39.90;;;;;;8362947;28;20397;-45
2022/07/23 05:50:09;;;;;;;;;;;28.50;39.90;;;;;;8362358;28;20011;-44
2022/07/23 05:54:10;;;;;;;;;;;28.50;39.90;;;;;;8362690;28;19920;-44
2022/07/23 05:58:10;;;;;;;;;;;28.50;39.90;;;;;;8362639;28;19932;-45
2022/07/23 06:02:11;;;;;;;;;;;28.50;39.90;;;;;;8367470;28;19916;-44
2022/07/23 06:06:11;;;;;;;;;;;28.50;40.00;;;;;;8369126;28;19913;-44
2022/07/23 06:10:12;;;;;;;;;;;28.50;39.90;;;;;;8368848;28;19999;-44
2022/07/23 06:14:12;;;;;;;;;;;28.50;40.00;;;;;;8368171;28;19990;-44
2022/07/23 06:18:12;;;;;;;;;;;28.60;40.00;;;;;;8368233;28;19952;-45
2022/07/23 06:22:13;;;;;;;;;;;28.50;40.00;;;;;;8368380;28;19917;-44
2022/07/23 06:26:13;;;;;;;;;;;28.60;40.10;;;;;;8367757;28;19921;-44
2022/07/23 06:30:16;;;;;;;;;;;28.50;40.00;;;;;;8368297;28;20369;-44
2022/07/23 06:34:16;;;;;;;;;;;28.50;40.00;;;;;;8368235;28;19959;-44
2022/07/23 06:38:16;;;;;;;;;;;28.50;40.00;;;;;;8367205;28;20385;-44
2022/07/23 06:42:17;;;;;;;;;;;28.50;40.20;;;;;;8367715;28;19924;-44
2022/07/23 06:46:17;;;;;;;;;;;28.50;40.10;;;;;;8367572;28;19919;-46
2022/07/23 06:50:18;;;;;;;;;;;28.50;40.00;;;;;;8366978;28;19917;-44
2022/07/23 06:54:18;;;;;;;;;;;28.50;40.10;;;;;;8367724;28;19921;-44
2022/07/23 06:58:20;;;;;;;;;;;28.50;40.70;;;;;;8367139;28;20336;-44
2022/07/23 07:02:20;;;;;;;;;;;28.50;40.20;;;;;;8366677;28;20004;-44
2022/07/23 07:06:20;;;;;;;;;;;28.40;40.10;;;;;;8366978;28;19935;-44
2022/07/23 07:10:21;;;;;;;;;;;28.50;40.10;;;;;;8365870;28;19916;-46
2022/07/23 07:14:22;;;;;;;;;;;28.50;40.10;;;;;;8366331;28;19921;-46
2022/07/23 07:18:22;;;;;;;;;;;28.50;40.10;;;;;;8366364;28;19932;-45
2022/07/23 07:22:22;;;;;;;;;;;28.50;40.10;;;;;;8366389;28;19952;-46
2022/07/23 07:26:23;;;;;;;;;;;28.50;40.20;;;;;;8365837;28;20373;-45
2022/07/23 07:30:23;;;;;;;;;;;28.50;40.20;;;;;;8366299;28;19924;-44
2022/07/23 07:34:24;;;;;;;;;;;28.50;40.20;;;;;;8366325;28;19938;-45
2022/07/23 07:38:24;;;;;;;;;;;28.50;40.10;;;;;;8365151;28;19924;-45
2022/07/23 07:42:25;;;;;;;;;;;28.50;40.20;;;;;;8365643;28;19917;-44
2022/07/23 07:46:27;;;;;;;;;;;28.50;40.20;;;;;;8365659;28;19920;-44
2022/07/23 07:50:27;;;;;;;;;;;28.40;40.20;;;;;;8365379;28;19926;-45
2022/07/23 07:54:28;;;;;;;;;;;28.50;40.30;;;;;;8365896;28;19916;-45
2022/07/23 07:58:28;;;;;;;;;;;28.40;40.20;;;;;;8365227;28;20377;-44
2022/07/23 08:02:29;;;;;;;;;;;28.40;40.20;;;;;;8364511;28;20110;-45
2022/07/23 08:06:29;;;;;;;;;;;28.40;40.30;;;;;;8364805;28;19917;-45
2022/07/23 08:10:31;;;;;;;;;;;28.40;40.30;;;;;;8365324;28;20613;-44
2022/07/23 08:14:31;;;;;;;;;;;28.50;40.40;;;;;;8364201;28;20396;-45
2022/07/23 08:18:32;;;;;;;;;;;28.40;40.40;;;;;;8364533;28;19967;-44
2022/07/23 08:22:45;;;;;;;;;;;28.50;40.30;;;;;;8364066;28;19912;-43
2022/07/23 08:26:46;;;;;;;;;;;28.40;40.40;;;;;;8364031;28;19917;-44
2022/07/23 08:30:46;;;;;;;;;;;28.50;40.90;;;;;;8364158;28;20357;-44
2022/07/23 08:34:46;;;;;;;;;;;28.50;40.40;;;;;;8363980;28;19971;-45
2022/07/23 08:38:47;;;;;;;;;;;28.50;40.40;;;;;;8364016;28;19925;-46
2022/07/23 08:42:49;;;;;;;;;;;28.50;40.40;;;;;;8364096;28;19920;-45
2022/07/23 08:46:49;;;;;;;;;;;28.40;40.40;;;;;;8363386;28;19924;-45
2022/07/23 08:50:51;;;;;;;;;;;28.40;40.40;;;;;;8364122;28;19917;-45
2022/07/23 08:54:52;;;;;;;;;;;28.50;40.40;;;;;;8363823;28;19916;-45
2022/07/23 08:58:53;;;;;;;;;;;28.40;40.40;;;;;;8362909;28;20319;-45
2022/07/23 09:02:54;;;;;;;;;;;28.40;40.40;;;;;;8363311;28;19924;-45
2022/07/23 09:06:55;;;;;;;;;;;28.40;40.40;;;;;;8363406;28;19963;-44
2022/07/23 09:10:57;;;;;;;;;;;28.50;40.50;;;;;;8363100;28;22261;-45
2022/07/23 09:15:02;;;;;;;;;;;28.50;40.50;;;;;;8363119;28;20021;-45
2022/07/23 09:19:04;;;;;;;;;;;28.40;40.50;;;;;;8362814;28;19929;-45
2022/07/23 09:23:04;;;;;;;;;;;28.40;40.40;;;;;;8362592;28;20016;-46
2022/07/23 09:27:05;;;;;;;;;;;28.40;40.40;;;;;;8362916;28;19913;-44
2022/07/23 09:31:05;;;;;;;;;;;28.50;40.40;;;;;;8363118;28;20018;-45
2022/07/23 09:35:06;;;;;;;;;;;28.50;40.40;;;;;;8364528;28;20378;-45
2022/07/23 09:39:07;;;;;;;;;;;28.50;40.40;;;;;;8369717;28;19933;-45
2022/07/23 09:43:08;;;;;;;;;;;28.50;40.40;;;;;;8369610;28;19919;-46
2022/07/23 09:47:08;;;;;;;;;;;28.50;40.40;;;;;;8368819;28;19955;-45
2022/07/23 09:51:08;;;;;;;;;;;28.50;40.40;;;;;;8369437;28;19916;-45
2022/07/23 09:55:09;;;;;;;;;;;28.50;40.50;;;;;;8369194;28;19928;-45
2022/07/23 09:59:11;;;;;;;;;;;28.50;40.40;;;;;;8368375;28;19924;-45
2022/07/23 10:03:13;;;;;;;;;;;28.50;40.40;;;;;;8369079;28;19917;-45
2022/07/23 10:07:16;;;;;;;;;;;28.50;40.40;;;;;;8367924;28;19912;-45
2022/07/23 10:11:17;;;;;;;;;;;28.50;40.40;;;;;;8368460;28;19923;-45
2022/07/23 10:15:17;;;;;;;;;;;28.60;40.40;;;;;;8368313;28;20278;-46
2022/07/23 10:19:18;;;;;;;;;;;28.60;40.40;;;;;;8368185;28;20007;-46
2022/07/23 10:23:30;;;;;;;;;;;28.60;40.40;;;;;;8367738;28;19924;-45
2022/07/23 10:27:49;;;;;;;;;;;28.60;40.30;;;;;;8368420;28;19932;-45
2022/07/23 10:31:54;;;;;;;;;;;28.60;40.30;;;;;;8367471;28;19975;-46
2022/07/23 10:36:18;;;;;;;;;;;28.60;40.30;;;;;;8367936;28;20313;-45
2022/07/23 10:40:19;;;;;;;;;;;28.60;40.30;;;;;;8367377;28;20340;-45
2022/07/23 10:44:23;;;;;;;;;;;28.60;40.40;;;;;;8367198;28;19923;-44
2022/07/23 10:48:28;;;;;;;;;;;28.70;40.40;;;;;;8366985;28;19912;-45
2022/07/23 10:52:28;;;;;;;;;;;28.70;40.30;;;;;;8367242;28;19916;-45
2022/07/23 10:56:47;;;;;;;;;;;28.70;40.40;;;;;;8366764;28;20301;-45
2022/07/23 11:00:48;;;;;;;;;;;28.70;40.40;;;;;;8367185;28;19917;-45
2022/07/23 11:04:50;;;;;;;;;;;28.70;40.30;;;;;;8366458;28;19913;-45
2022/07/23 11:09:10;;;;;;;;;;;28.70;40.30;;;;;;8366994;28;19924;-45
2022/07/23 11:13:29;;;;;;;;;;;28.70;40.40;;;;;;8366400;28;20350;-45
2022/07/23 11:17:31;;;;;;;;;;;28.70;40.30;;;;;;8366139;28;20366;-45
2022/07/23 11:21:37;;;;;;;;;;;28.70;40.30;;;;;;8366640;28;19917;-45
2022/07/23 11:25:37;;;;;;;;;;;28.70;40.30;;;;;;8365924;28;19917;-45
2022/07/23 11:29:38;;;;;;;;;;;28.80;40.30;;;;;;8366353;28;19940;-46
2022/07/23 11:33:38;;;;;;;;;;;28.80;40.40;;;;;;8366301;28;19925;-45
2022/07/23 11:37:39;;;;;;;;;;;28.80;40.40;;;;;;8347466;28;19979;-45
2022/07/23 11:41:43;;;;;;;;;;;28.80;40.30;;;;;;8365989;28;19913;-45
2022/07/23 11:45:48;;;;;;;;;;;28.80;40.30;;;;;;8365771;28;20266;-45
2022/07/23 11:49:56;;;;;;;;;;;28.90;40.40;;;;;;8365187;28;19940;-45
2022/07/23 11:54:05;;;;;;;;;;;28.80;40.30;;;;;;8365593;28;20258;-45
2022/07/23 11:58:05;;;;;;;;;;;28.90;40.40;;;;;;8364363;28;19928;-45
2022/07/23 12:02:06;;;;;;;;;;;28.90;40.30;;;;;;8365021;28;19983;-46
2022/07/23 12:06:07;;;;;;;;;;;28.90;40.20;;;;;;8365381;28;19924;-46
2022/07/23 12:10:11;;;;;;;;;;;28.90;40.20;;;;;;8364865;28;19924;-46
2022/07/23 12:14:11;;;;;;;;;;;29.00;40.20;;;;;;8364294;28;19921;-46
2022/07/23 12:18:14;;;;;;;;;;;29.00;40.20;;;;;;8364542;28;19927;-45
2022/07/23 12:22:14;;;;;;;;;;;29.00;40.10;;;;;;8364780;28;19925;-45
2022/07/23 12:26:15;;;;;;;;;;;29.00;40.10;;;;;;8363982;28;19971;-45
2022/07/23 12:30:20;;;;;;;;;;;29.10;40.10;;;;;;8364375;28;20005;-46
2022/07/23 12:34:20;;;;;;;;;;;29.10;40.10;;;;;;8364092;28;19913;-46
2022/07/23 12:38:21;;;;;;;;;;;29.10;40.10;;;;;;8363454;28;19931;-46
2022/07/23 12:42:24;;;;;;;;;;;29.10;40.10;;;;;;8364220;28;19991;-45
2022/07/23 12:46:24;;;;;;;;;;;29.10;40.00;;;;;;8363745;28;19974;-46
2022/07/23 12:50:31;;;;;;;;;;;29.10;40.00;;;;;;8363091;28;19917;-46
2022/07/23 12:54:31;;;;;;;;;;;29.10;40.00;;;;;;8363551;28;19916;-46
2022/07/23 12:58:41;;;;;;;;;;;29.20;40.10;;;;;;8345534;28;20293;-45
2022/07/23 13:02:46;;;;;;;;;;;29.20;40.00;;;;;;8363664;28;20178;-43
2022/07/23 13:06:47;;;;;;;;;;;29.20;40.00;;;;;;8344859;28;19966;-45
2022/07/23 13:10:48;;;;;;;;;;;29.20;39.90;;;;;;8362524;28;19924;-45
2022/07/23 13:14:49;;;;;;;;;;;29.20;40.00;;;;;;8362779;28;19921;-45
2022/07/23 13:18:49;;;;;;;;;;;29.30;40.00;;;;;;8361586;28;20410;-46
2022/07/23 13:22:50;;;;;;;;;;;29.30;39.90;;;;;;8361273;28;19921;-45
2022/07/23 13:26:51;;;;;;;;;;;29.30;39.90;;;;;;8361884;28;20380;-45
2022/07/23 13:30:52;;;;;;;;;;;29.30;39.90;;;;;;8361619;28;19923;-44
2022/07/23 13:34:52;;;;;;;;;;;29.20;39.90;;;;;;8361158;28;19940;-45
2022/07/23 13:38:53;;;;;;;;;;;29.30;39.90;;;;;;8361361;28;19928;-45
2022/07/23 13:42:53;;;;;;;;;;;29.30;39.90;;;;;;8361200;28;19916;-45
2022/07/23 13:46:54;;;;;;;;;;;29.30;39.90;;;;;;8361091;28;19921;-45
2022/07/23 13:50:54;;;;;;;;;;;29.30;39.90;;;;;;8361408;28;19948;-45
2022/07/23 13:54:55;;;;;;;;;;;29.20;39.90;;;;;;8361220;28;19917;-45
2022/07/23 13:58:55;;;;;;;;;;;29.30;39.90;;;;;;8360666;28;19937;-45
2022/07/23 14:02:56;;;;;;;;;;;29.30;39.90;;;;;;8361047;28;19913;-45
2022/07/23 14:06:57;;;;;;;;;;;29.30;39.90;;;;;;8394231;28;19916;-45
2022/07/23 14:10:57;;;;;;;;;;;29.30;39.90;;;;;;8393458;28;20400;-45
2022/07/23 14:14:58;;;;;;;;;;;29.30;39.80;;;;;;8332653;28;1752653;-44
2022/07/23 14:18:58;;;;;;;;;;;29.40;39.90;;;;;;8387819;28;19956;-46
2022/07/23 14:23:00;;;;;;;;;;;29.40;39.80;;;;;;8366669;28;19921;-45
2022/07/23 14:27:01;;;;;;;;;;;29.40;39.80;;;;;;8368532;28;19916;-45
2022/07/23 14:31:02;;;;;;;;;;;29.40;39.70;;;;;;8368220;28;19917;-46
2022/07/23 14:35:03;;;;;;;;;;;29.40;39.60;;;;;;8367395;28;20283;-46
2022/07/23 14:39:04;;;;;;;;;;;29.40;39.60;;;;;;8367620;28;19924;-45
2022/07/23 14:43:04;;;;;;;;;;;29.40;39.60;;;;;;8367830;28;19987;-45
2022/07/23 14:47:05;;;;;;;;;;;29.40;39.60;;;;;;8367044;28;20270;-45
2022/07/23 14:51:05;;;;;;;;;;;29.40;39.60;;;;;;8367761;28;19921;-45
2022/07/23 14:55:06;;;;;;;;;;;29.50;39.60;;;;;;8367453;28;19913;-43
2022/07/23 14:59:06;;;;;;;;;;;29.50;39.60;;;;;;8366629;28;19929;-45
2022/07/23 15:03:07;;;;;;;;;;;29.50;39.50;;;;;;8367467;28;19913;-45
2022/07/23 15:07:07;;;;;;;;;;;29.50;39.50;;;;;;8366875;28;19924;-45
2022/07/23 15:11:09;;;;;;;;;;;29.50;39.50;;;;;;8366424;28;19916;-45
2022/07/23 15:15:09;;;;;;;;;;;29.50;39.50;;;;;;8367000;28;19925;-45
2022/07/23 15:19:10;;;;;;;;;;;29.50;39.50;;;;;;8366517;28;19924;-48
2022/07/23 15:23:10;;;;;;;;;;;29.50;39.50;;;;;;8366253;28;19940;-44
2022/07/23 15:27:10;;;;;;;;;;;29.50;39.40;;;;;;8366403;28;19917;-45
2022/07/23 15:31:11;;;;;;;;;;;29.50;39.40;;;;;;8348018;28;20006;-46
2022/07/23 15:35:11;;;;;;;;;;;29.50;39.40;;;;;;8364918;28;19917;-45
2022/07/23 15:39:12;;;;;;;;;;;29.50;39.40;;;;;;8366185;28;19920;-45
2022/07/23 15:43:13;;;;;;;;;;;29.50;39.40;;;;;;8366287;28;20262;-45
2022/07/23 15:47:14;;;;;;;;;;;29.50;39.40;;;;;;8347518;28;19917;-46
2022/07/23 15:51:15;;;;;;;;;;;29.50;39.40;;;;;;8365570;28;20382;-44
2022/07/23 15:55:16;;;;;;;;;;;29.50;39.40;;;;;;8365417;28;19924;-45
2022/07/23 15:59:16;;;;;;;;;;;29.50;39.40;;;;;;8364763;28;20411;-45
2022/07/23 16:03:17;;;;;;;;;;;29.50;39.40;;;;;;8365615;28;19995;-45
2022/07/23 16:07:18;;;;;;;;;;;29.50;39.40;;;;;;8366490;28;19917;-45
2022/07/23 16:11:18;;;;;;;;;;;29.50;39.40;;;;;;8367395;28;19923;-45
2022/07/23 16:15:19;;;;;;;;;;;29.50;39.40;;;;;;8379797;28;20365;-46
2022/07/23 16:19:19;;;;;;;;;;;29.50;39.40;;;;;;8397930;28;19924;-45
2022/07/23 16:23:20;;;;;;;;;;;29.50;39.40;;;;;;8379411;28;19927;-45
2022/07/23 16:27:20;;;;;;;;;;;29.50;39.40;;;;;;8397778;28;19917;-46
2022/07/23 16:31:21;;;;;;;;;;;29.50;39.40;;;;;;8397440;28;19916;-45
2022/07/23 16:35:21;;;;;;;;;;;29.50;39.40;;;;;;8396850;28;19975;-45
2022/07/23 16:39:22;;;;;;;;;;;29.50;39.40;;;;;;8397202;28;19924;-45
2022/07/23 16:43:22;;;;;;;;;;;29.50;39.40;;;;;;8379031;28;20376;-45
2022/07/23 16:47:23;;;;;;;;;;;29.40;39.40;;;;;;8396645;28;20332;-47
2022/07/23 16:51:23;;;;;;;;;;;29.40;39.40;;;;;;8397058;28;19995;-46
2022/07/23 16:55:24;;;;;;;;;;;29.40;39.40;;;;;;8378934;28;19920;-45
2022/07/23 16:59:24;;;;;;;;;;;29.40;39.40;;;;;;8396299;28;19978;-45
2022/07/23 17:03:26;;;;;;;;;;;29.40;39.40;;;;;;8397011;28;20440;-44
2022/07/23 17:07:27;;;;;;;;;;;29.40;39.50;;;;;;8396654;28;19923;-45
2022/07/23 17:11:27;;;;;;;;;;;29.40;39.50;;;;;;8396006;28;20332;-46
2022/07/23 17:15:27;;;;;;;;;;;29.40;39.50;;;;;;8396767;28;19920;-46
2022/07/23 17:19:28;;;;;;;;;;;29.30;39.40;;;;;;8378374;28;20019;-47
2022/07/23 17:23:28;;;;;;;;;;;29.40;39.50;;;;;;8396019;28;19930;-45
2022/07/23 17:27:29;;;;;;;;;;;29.40;39.50;;;;;;8396473;28;20317;-46
2022/07/23 17:31:29;;;;;;;;;;;29.40;39.50;;;;;;8378388;28;20266;-44
2022/07/23 17:35:30;;;;;;;;;;;29.40;39.50;;;;;;8395697;28;19939;-48
2022/07/23 17:39:30;;;;;;;;;;;29.40;39.50;;;;;;8378129;28;20365;-45
2022/07/23 17:43:31;;;;;;;;;;;29.40;39.50;;;;;;8396372;28;20029;-45
2022/07/23 17:47:31;;;;;;;;;;;29.40;39.40;;;;;;8395478;28;19966;-45
2022/07/23 17:51:32;;;;;;;;;;;29.40;39.50;;;;;;8379079;28;19978;-45
2022/07/23 17:55:33;;;;;;;;;;;29.30;39.40;;;;;;8363925;28;20023;-44
2022/07/23 17:59:33;;;;;;;;;;;29.30;39.40;;;;;;8368744;28;19956;-45
2022/07/23 18:03:35;;;;;;;;;;;29.30;39.40;;;;;;8369643;28;20316;-47
2022/07/23 18:07:36;;;;;;;;;;;29.30;39.40;;;;;;8368791;28;19923;-44
2022/07/23 18:11:36;;;;;;;;;;;29.30;39.40;;;;;;8368536;28;19921;-44
2022/07/23 18:15:37;;;;;;;;;;;29.30;39.40;;;;;;8368590;28;19924;-45
2022/07/23 18:19:37;;;;;;;;;;;29.30;39.40;;;;;;8368219;28;19922;-46
2022/07/23 18:23:38;;;;;;;;;;;29.30;39.40;;;;;;8368349;28;19917;-44
2022/07/23 18:27:39;;;;;;;;;;;29.30;39.40;;;;;;8368449;28;19963;-45
2022/07/23 18:31:39;;;;;;;;;;;29.30;39.40;;;;;;8367646;28;19917;-46
2022/07/23 18:35:40;;;;;;;;;;;29.30;39.40;;;;;;8350160;28;19917;-44
2022/07/23 18:39:41;;;;;;;;;;;29.30;39.40;;;;;;8368183;28;19920;-46
2022/07/23 18:43:42;;;;;;;;;;;29.30;39.40;;;;;;8367349;28;19942;-45
2022/07/23 18:47:42;;;;;;;;;;;29.30;39.40;;;;;;8367877;28;19917;-46
2022/07/23 18:51:43;;;;;;;;;;;29.20;39.40;;;;;;8367493;28;19968;-46
2022/07/23 18:55:43;;;;;;;;;;;29.20;39.40;;;;;;8366865;28;20389;-44
2022/07/23 18:59:44;;;;;;;;;;;29.30;39.50;;;;;;8367768;28;19925;-46
2022/07/23 19:03:44;;;;;;;;;;;29.30;39.50;;;;;;8366378;28;19921;-45
2022/07/23 19:07:45;;;;;;;;;;;29.30;39.50;;;;;;8366372;28;19921;-45
2022/07/23 19:11:45;;;;;;;;;;;29.30;39.50;;;;;;8367013;28;19917;-49
2022/07/23 19:15:46;;;;;;;;;;;29.20;39.50;;;;;;8367289;28;19991;-45
2022/07/23 19:19:46;;;;;;;;;;;29.20;39.50;;;;;;8366508;28;19973;-45
2022/07/23 19:23:47;;;;;;;;;;;29.20;39.50;;;;;;8366601;28;20004;-46
2022/07/23 19:27:47;;;;;;;;;;;29.20;39.50;;;;;;8366923;28;20000;-45
2022/07/23 19:31:48;;;;;;;;;;;29.20;39.50;;;;;;8365900;28;19967;-45
2022/07/23 19:35:48;;;;;;;;;;;29.20;39.50;;;;;;8366374;28;20411;-45
2022/07/23 19:39:49;;;;;;;;;;;29.20;39.50;;;;;;8366453;28;19924;-45
2022/07/23 19:43:49;;;;;;;;;;;29.20;39.50;;;;;;8365510;28;19916;-45
2022/07/23 19:47:50;;;;;;;;;;;29.20;39.50;;;;;;8366016;28;19920;-46
2022/07/23 19:51:50;;;;;;;;;;;29.20;39.50;;;;;;8365641;28;19917;-46
2022/07/23 19:55:51;;;;;;;;;;;29.20;39.50;;;;;;8364981;28;20285;-47
2022/07/23 19:59:51;;;;;;;;;;;29.20;39.60;;;;;;8365913;28;19921;-46
2022/07/23 20:03:51;;;;;;;;;;;29.20;39.60;;;;;;8365035;28;19990;-45
2022/07/23 20:07:52;;;;;;;;;;;29.20;39.60;;;;;;8364773;28;19959;-46
2022/07/23 20:11:52;;;;;;;;;;;29.20;39.60;;;;;;8365035;28;19917;-45
2022/07/23 20:15:53;;;;;;;;;;;29.20;39.60;;;;;;8364861;28;19927;-44
2022/07/23 20:19:53;;;;;;;;;;;29.20;39.60;;;;;;8363818;28;19960;-46
2022/07/23 20:23:54;;;;;;;;;;;29.20;39.60;;;;;;8364696;28;19924;-45
2022/07/23 20:27:55;;;;;;;;;;;29.10;39.60;;;;;;8364505;28;19927;-46
2022/07/23 20:31:56;;;;;;;;;;;29.10;39.60;;;;;;8363905;28;20010;-45
2022/07/23 20:35:57;;;;;;;;;;;29.10;39.60;;;;;;8367336;28;19917;-45
2022/07/23 20:39:57;;;;;;;;;;;29.10;39.60;;;;;;8397556;28;19928;-45
2022/07/23 20:43:57;;;;;;;;;;;29.10;39.60;;;;;;8396659;28;20011;-45
2022/07/23 20:47:59;;;;;;;;;;;29.10;39.60;;;;;;8396870;28;19916;-45
2022/07/23 20:51:59;;;;;;;;;;;29.10;39.60;;;;;;8396908;28;20011;-45
2022/07/23 20:55:59;;;;;;;;;;;29.10;39.70;;;;;;8396459;28;20010;-45
2022/07/23 21:00:00;;;;;;;;;;;29.00;39.60;;;;;;8397007;28;19975;-45
2022/07/23 21:04:00;;;;;;;;;;;29.00;39.60;;;;;;8396722;28;19940;-45
2022/07/23 21:08:01;;;;;;;;;;;29.00;39.60;;;;;;8396032;28;19963;-45
2022/07/23 21:12:02;;;;;;;;;;;29.00;39.60;;;;;;8396521;28;20297;-44
2022/07/23 21:16:03;;;;;;;;;;;29.00;39.60;;;;;;8396733;28;20385;-45
2022/07/23 21:20:04;;;;;;;;;;;29.00;39.60;;;;;;8391259;28;19944;-45
2022/07/23 21:24:05;;;;;;;;;;;29.00;39.60;;;;;;8349042;28;20263;-45
2022/07/23 21:28:05;;;;;;;;;;;28.90;41.50;;;;;;8354750;28;20404;-45
2022/07/23 21:32:06;;;;;;;;;;;28.80;42.60;;;;;;8356886;28;19972;-44
2022/07/23 21:36:06;;;;;;;;;;;28.60;42.00;;;;;;8337944;28;19917;-46
2022/07/23 21:40:07;;;;;;;;;;;28.60;41.20;;;;;;8370301;28;19925;-45
2022/07/23 21:44:07;;;;;;;;;;;28.60;40.80;;;;;;8369078;28;20330;-44
2022/07/23 21:48:08;;;;;;;;;;;28.70;40.70;;;;;;8369873;28;20007;-45
2022/07/23 21:52:08;;;;;;;;;;;28.70;40.60;;;;;;8369361;28;19916;-46
2022/07/23 21:56:09;;;;;;;;;;;28.80;40.50;;;;;;8368863;28;19928;-45
2022/07/23 22:00:16;;;;;;;;;;;28.80;40.40;;;;;;8369138;28;20062;-44
2022/07/23 22:04:16;;;;;;;;;;;28.80;40.40;;;;;;8402371;28;19917;-44
2022/07/23 22:08:17;;;;;;;;;;;28.80;40.40;;;;;;8401475;28;19920;-46
2022/07/23 22:12:17;;;;;;;;;;;28.90;40.40;;;;;;8385489;28;20369;-44
2022/07/23 22:16:18;;;;;;;;;;;28.80;40.30;;;;;;8350606;28;19920;-45
2022/07/23 22:20:18;;;;;;;;;;;28.80;40.30;;;;;;8368363;28;19936;-46
2022/07/23 22:24:19;;;;;;;;;;;28.90;40.30;;;;;;8350742;28;19917;-44
2022/07/23 22:28:19;;;;;;;;;;;28.80;40.20;;;;;;8368329;28;19950;-45
2022/07/23 22:32:20;;;;;;;;;;;28.80;40.20;;;;;;8358737;28;19923;-47
2022/07/23 22:36:20;;;;;;;;;;;28.80;40.60;;;;;;8366535;28;19923;-44
2022/07/23 22:40:21;;;;;;;;;;;28.50;42.70;;;;;;8375076;28;20301;-45
2022/07/23 22:44:21;;;;;;;;;;;28.40;42.40;;;;;;8359893;28;19930;-45
2022/07/23 22:48:22;;;;;;;;;;;28.20;42.60;;;;;;8350759;28;19917;-45
2022/07/23 22:52:22;;;;;;;;;;;28.20;42.70;;;;;;8373001;28;19912;-46
2022/07/23 22:56:23;;;;;;;;;;;28.10;42.70;;;;;;8400328;28;19963;-46
2022/07/23 23:00:23;;;;;;;;;;;28.00;42.80;;;;;;8357003;28;19956;-46
2022/07/23 23:04:24;;;;;;;;;;;28.00;42.90;;;;;;8359125;28;19920;-46
2022/07/23 23:08:24;;;;;;;;;;;28.10;44.80;;;;;;8390751;28;19917;-45
2022/07/23 23:12:24;;;;;;;;;;;28.10;43.00;;;;;;8393474;28;19917;-46
2022/07/23 23:16:25;;;;;;;;;;;28.30;42.50;;;;;;8366962;28;19924;-46
2022/07/23 23:20:25;;;;;;;;;;;28.30;42.10;;;;;;8358988;28;19925;-45